sensor_id;sensor_type;location;lat;lon;timestamp;temperature;humidity
6486;DHT22;3276;48.490;9.222;2023-05-29T00:02:08;12.10;13.30
6486;DHT22;3276;48.490;9.222;2023-05-29T00:04:33;12.10;14.20
6486;DHT22;3276;48.490;9.222;2023-05-29T00:06:59;12.10;14.00
6486;DHT22;3276;48.490;9.222;2023-05-29T00:09:25;12.10;14.30
6486;DHT22;3276;48.490;9.222;2023-05-29T00:11:51;12.00;14.40
6486;DHT22;3276;48.490;9.222;2023-05-29T00:14:21;12.00;14.80
6486;DHT22;3276;48.490;9.222;2023-05-29T00:16:47;12.00;15.00
6486;DHT22;3276;48.490;9.222;2023-05-29T00:19:14;12.00;15.20
6486;DHT22;3276;48.490;9.222;2023-05-29T00:21:42;12.00;15.40
6486;DHT22;3276;48.490;9.222;2023-05-29T00:24:08;11.90;15.40
6486;DHT22;3276;48.490;9.222;2023-05-29T00:26:33;11.90;15.40
6486;DHT22;3276;48.490;9.222;2023-05-29T00:28:59;11.80;15.30
6486;DHT22;3276;48.490;9.222;2023-05-29T00:31:24;11.80;15.30
6486;DHT22;3276;48.490;9.222;2023-05-29T00:33:50;11.80;15.30
6486;DHT22;3276;48.490;9.222;2023-05-29T00:36:16;11.80;15.30
6486;DHT22;3276;48.490;9.222;2023-05-29T00:38:41;11.80;15.30
6486;DHT22;3276;48.490;9.222;2023-05-29T00:41:07;11.70;15.30
6486;DHT22;3276;48.490;9.222;2023-05-29T00:43:33;11.70;15.80
6486;DHT22;3276;48.490;9.222;2023-05-29T00:45:59;11.60;16.50
6486;DHT22;3276;48.490;9.222;2023-05-29T00:48:25;11.60;16.20
6486;DHT22;3276;48.490;9.222;2023-05-29T00:50:51;11.50;15.70
6486;DHT22;3276;48.490;9.222;2023-05-29T00:53:17;11.50;15.10
6486;DHT22;3276;48.490;9.222;2023-05-29T00:55:42;11.50;15.20
6486;DHT22;3276;48.490;9.222;2023-05-29T00:58:08;11.50;15.50
6486;DHT22;3276;48.490;9.222;2023-05-29T01:00:34;11.40;15.60
6486;DHT22;3276;48.490;9.222;2023-05-29T01:03:03;11.30;16.20
6486;DHT22;3276;48.490;9.222;2023-05-29T01:05:33;11.20;16.30
6486;DHT22;3276;48.490;9.222;2023-05-29T01:07:59;11.20;16.50
6486;DHT22;3276;48.490;9.222;2023-05-29T01:10:25;11.10;16.70
6486;DHT22;3276;48.490;9.222;2023-05-29T01:12:54;11.10;17.10
6486;DHT22;3276;48.490;9.222;2023-05-29T01:18:19;11.00;17.80
6486;DHT22;3276;48.490;9.222;2023-05-29T01:23:22;10.90;18.60
6486;DHT22;3276;48.490;9.222;2023-05-29T01:28:21;10.90;19.00
6486;DHT22;3276;48.490;9.222;2023-05-29T01:30:51;10.80;18.90
6486;DHT22;3276;48.490;9.222;2023-05-29T01:33:19;10.80;18.90
6486;DHT22;3276;48.490;9.222;2023-05-29T01:35:45;10.80;18.90
6486;DHT22;3276;48.490;9.222;2023-05-29T01:38:10;10.80;18.90
6486;DHT22;3276;48.490;9.222;2023-05-29T01:40:36;10.80;19.60
6486;DHT22;3276;48.490;9.222;2023-05-29T01:43:03;10.70;20.00
6486;DHT22;3276;48.490;9.222;2023-05-29T01:45:28;10.70;19.90
6486;DHT22;3276;48.490;9.222;2023-05-29T01:47:55;10.70;19.90
6486;DHT22;3276;48.490;9.222;2023-05-29T01:50:22;10.60;20.20
6486;DHT22;3276;48.490;9.222;2023-05-29T01:52:49;10.60;20.40
6486;DHT22;3276;48.490;9.222;2023-05-29T01:55:15;10.60;20.70
6486;DHT22;3276;48.490;9.222;2023-05-29T01:57:41;10.60;20.90
6486;DHT22;3276;48.490;9.222;2023-05-29T02:00:07;10.50;20.80
6486;DHT22;3276;48.490;9.222;2023-05-29T02:02:39;10.50;21.10
6486;DHT22;3276;48.490;9.222;2023-05-29T02:05:07;10.50;21.00
6486;DHT22;3276;48.490;9.222;2023-05-29T02:07:33;10.40;21.30
6486;DHT22;3276;48.490;9.222;2023-05-29T02:09:58;10.40;21.20
6486;DHT22;3276;48.490;9.222;2023-05-29T02:12:24;10.40;21.10
6486;DHT22;3276;48.490;9.222;2023-05-29T02:14:53;10.40;20.90
6486;DHT22;3276;48.490;9.222;2023-05-29T02:17:19;10.30;21.40
6486;DHT22;3276;48.490;9.222;2023-05-29T02:19:44;10.30;21.70
6486;DHT22;3276;48.490;9.222;2023-05-29T02:22:10;10.30;21.60
6486;DHT22;3276;48.490;9.222;2023-05-29T02:24:36;10.20;21.50
6486;DHT22;3276;48.490;9.222;2023-05-29T02:27:01;10.20;21.70
6486;DHT22;3276;48.490;9.222;2023-05-29T02:29:28;10.10;21.90
6486;DHT22;3276;48.490;9.222;2023-05-29T02:31:54;10.10;22.00
6486;DHT22;3276;48.490;9.222;2023-05-29T02:34:19;10.10;22.10
6486;DHT22;3276;48.490;9.222;2023-05-29T02:36:48;10.10;22.60
6486;DHT22;3276;48.490;9.222;2023-05-29T02:39:14;10.00;22.60
6486;DHT22;3276;48.490;9.222;2023-05-29T02:41:39;10.10;22.70
6486;DHT22;3276;48.490;9.222;2023-05-29T02:44:05;10.00;23.60
6486;DHT22;3276;48.490;9.222;2023-05-29T02:46:31;10.00;23.60
6486;DHT22;3276;48.490;9.222;2023-05-29T02:48:56;10.00;24.50
6486;DHT22;3276;48.490;9.222;2023-05-29T02:51:22;10.00;24.50
6486;DHT22;3276;48.490;9.222;2023-05-29T02:53:47;10.00;25.00
6486;DHT22;3276;48.490;9.222;2023-05-29T02:56:14;10.00;25.80
6486;DHT22;3276;48.490;9.222;2023-05-29T02:58:41;10.00;26.00
6486;DHT22;3276;48.490;9.222;2023-05-29T03:01:07;10.00;26.70
6486;DHT22;3276;48.490;9.222;2023-05-29T03:03:33;10.00;27.90
6486;DHT22;3276;48.490;9.222;2023-05-29T03:05:58;10.00;30.00
6486;DHT22;3276;48.490;9.222;2023-05-29T03:08:26;9.90;33.30
6486;DHT22;3276;48.490;9.222;2023-05-29T03:10:53;9.90;31.90
6486;DHT22;3276;48.490;9.222;2023-05-29T03:13:19;9.90;29.40
6486;DHT22;3276;48.490;9.222;2023-05-29T03:15:45;9.80;30.30
6486;DHT22;3276;48.490;9.222;2023-05-29T03:18:11;9.90;29.40
6486;DHT22;3276;48.490;9.222;2023-05-29T03:20:36;9.90;29.50
6486;DHT22;3276;48.490;9.222;2023-05-29T03:23:02;9.80;29.50
6486;DHT22;3276;48.490;9.222;2023-05-29T03:25:28;9.80;29.70
6486;DHT22;3276;48.490;9.222;2023-05-29T03:27:54;9.70;30.50
6486;DHT22;3276;48.490;9.222;2023-05-29T03:30:20;9.70;31.00
6486;DHT22;3276;48.490;9.222;2023-05-29T03:32:45;9.70;31.80
6486;DHT22;3276;48.490;9.222;2023-05-29T03:35:11;9.80;31.70
6486;DHT22;3276;48.490;9.222;2023-05-29T03:37:37;9.80;30.20
6486;DHT22;3276;48.490;9.222;2023-05-29T03:40:02;9.80;27.30
6486;DHT22;3276;48.490;9.222;2023-05-29T03:42:30;9.80;25.10
6486;DHT22;3276;48.490;9.222;2023-05-29T03:44:59;9.90;24.80
6486;DHT22;3276;48.490;9.222;2023-05-29T03:47:25;9.80;24.00
6486;DHT22;3276;48.490;9.222;2023-05-29T03:49:50;9.90;23.30
6486;DHT22;3276;48.490;9.222;2023-05-29T03:52:16;9.80;23.60
6486;DHT22;3276;48.490;9.222;2023-05-29T03:54:42;9.80;24.00
6486;DHT22;3276;48.490;9.222;2023-05-29T03:57:07;9.80;24.60
6486;DHT22;3276;48.490;9.222;2023-05-29T03:59:34;9.90;24.90
6486;DHT22;3276;48.490;9.222;2023-05-29T04:01:59;9.90;23.90
6486;DHT22;3276;48.490;9.222;2023-05-29T04:04:25;9.90;24.90
6486;DHT22;3276;48.490;9.222;2023-05-29T04:06:55;10.00;23.30
6486;DHT22;3276;48.490;9.222;2023-05-29T04:09:21;10.10;22.60
6486;DHT22;3276;48.490;9.222;2023-05-29T04:11:47;10.20;22.70
6486;DHT22;3276;48.490;9.222;2023-05-29T04:14:12;10.30;22.20
6486;DHT22;3276;48.490;9.222;2023-05-29T04:16:38;10.30;22.00
6486;DHT22;3276;48.490;9.222;2023-05-29T04:19:04;10.30;21.70
6486;DHT22;3276;48.490;9.222;2023-05-29T04:21:29;10.30;21.80
6486;DHT22;3276;48.490;9.222;2023-05-29T04:23:58;10.40;21.50
6486;DHT22;3276;48.490;9.222;2023-05-29T04:26:24;10.60;21.00
6486;DHT22;3276;48.490;9.222;2023-05-29T04:28:51;10.60;20.70
6486;DHT22;3276;48.490;9.222;2023-05-29T04:31:23;10.70;20.80
6486;DHT22;3276;48.490;9.222;2023-05-29T04:33:51;10.80;20.50
6486;DHT22;3276;48.490;9.222;2023-05-29T04:36:23;10.80;21.00
6486;DHT22;3276;48.490;9.222;2023-05-29T04:38:55;10.90;20.60
6486;DHT22;3276;48.490;9.222;2023-05-29T04:41:20;11.00;20.60
6486;DHT22;3276;48.490;9.222;2023-05-29T04:43:51;11.00;20.10
6486;DHT22;3276;48.490;9.222;2023-05-29T04:46:17;11.10;20.00
6486;DHT22;3276;48.490;9.222;2023-05-29T04:48:43;11.10;20.10
6486;DHT22;3276;48.490;9.222;2023-05-29T04:51:09;11.20;19.50
6486;DHT22;3276;48.490;9.222;2023-05-29T04:53:39;11.30;19.60
6486;DHT22;3276;48.490;9.222;2023-05-29T04:56:06;11.40;19.30
6486;DHT22;3276;48.490;9.222;2023-05-29T04:58:31;11.40;20.00
6486;DHT22;3276;48.490;9.222;2023-05-29T05:00:57;11.60;19.40
6486;DHT22;3276;48.490;9.222;2023-05-29T05:03:23;11.70;18.10
6486;DHT22;3276;48.490;9.222;2023-05-29T05:05:51;11.80;17.80
6486;DHT22;3276;48.490;9.222;2023-05-29T05:08:17;11.80;18.20
6486;DHT22;3276;48.490;9.222;2023-05-29T05:10:42;12.00;17.70
6486;DHT22;3276;48.490;9.222;2023-05-29T05:13:08;12.10;17.40
6486;DHT22;3276;48.490;9.222;2023-05-29T05:15:34;12.20;16.60
6486;DHT22;3276;48.490;9.222;2023-05-29T05:17:59;12.20;16.00
6486;DHT22;3276;48.490;9.222;2023-05-29T05:20:25;12.30;16.90
6486;DHT22;3276;48.490;9.222;2023-05-29T05:22:50;12.40;16.00
6486;DHT22;3276;48.490;9.222;2023-05-29T05:25:17;12.60;15.60
6486;DHT22;3276;48.490;9.222;2023-05-29T05:27:42;12.80;14.50
6486;DHT22;3276;48.490;9.222;2023-05-29T05:30:08;13.00;14.30
6486;DHT22;3276;48.490;9.222;2023-05-29T05:32:34;13.80;12.30
6486;DHT22;3276;48.490;9.222;2023-05-29T05:35:00;15.80;8.60
6486;DHT22;3276;48.490;9.222;2023-05-29T05:37:26;17.40;3.60
6486;DHT22;3276;48.490;9.222;2023-05-29T05:39:52;18.10;1.30
6486;DHT22;3276;48.490;9.222;2023-05-29T05:42:19;18.50;1.00
6486;DHT22;3276;48.490;9.222;2023-05-29T05:44:44;18.40;1.00
6486;DHT22;3276;48.490;9.222;2023-05-29T05:47:10;18.10;1.00
6486;DHT22;3276;48.490;9.222;2023-05-29T05:49:36;19.50;1.00
6486;DHT22;3276;48.490;9.222;2023-05-29T05:52:01;21.80;1.00
6486;DHT22;3276;48.490;9.222;2023-05-29T05:54:27;22.30;1.00
6486;DHT22;3276;48.490;9.222;2023-05-29T05:56:52;24.00;1.00
6486;DHT22;3276;48.490;9.222;2023-05-29T05:59:18;26.30;1.00
6486;DHT22;3276;48.490;9.222;2023-05-29T06:01:43;27.40;1.00
6486;DHT22;3276;48.490;9.222;2023-05-29T06:04:09;28.50;1.00
6486;DHT22;3276;48.490;9.222;2023-05-29T06:06:34;29.60;1.00
6486;DHT22;3276;48.490;9.222;2023-05-29T06:09:00;30.70;1.00
6486;DHT22;3276;48.490;9.222;2023-05-29T06:11:26;31.40;1.00
6486;DHT22;3276;48.490;9.222;2023-05-29T06:13:52;31.60;1.00
6486;DHT22;3276;48.490;9.222;2023-05-29T06:16:18;31.90;1.00
6486;DHT22;3276;48.490;9.222;2023-05-29T06:18:43;32.00;1.00
6486;DHT22;3276;48.490;9.222;2023-05-29T06:21:11;31.50;1.00
6486;DHT22;3276;48.490;9.222;2023-05-29T06:23:37;32.60;1.00
6486;DHT22;3276;48.490;9.222;2023-05-29T06:26:02;32.80;1.00
6486;DHT22;3276;48.490;9.222;2023-05-29T06:28:29;33.30;1.00
6486;DHT22;3276;48.490;9.222;2023-05-29T06:30:55;33.80;1.00
6486;DHT22;3276;48.490;9.222;2023-05-29T06:33:20;34.20;1.00
6486;DHT22;3276;48.490;9.222;2023-05-29T06:35:47;34.80;1.00
6486;DHT22;3276;48.490;9.222;2023-05-29T06:38:13;34.70;1.00
6486;DHT22;3276;48.490;9.222;2023-05-29T06:40:39;33.90;1.00
6486;DHT22;3276;48.490;9.222;2023-05-29T06:43:05;33.50;1.00
6486;DHT22;3276;48.490;9.222;2023-05-29T06:45:30;34.20;1.00
6486;DHT22;3276;48.490;9.222;2023-05-29T06:47:56;35.10;1.00
6486;DHT22;3276;48.490;9.222;2023-05-29T06:50:22;34.90;1.00
6486;DHT22;3276;48.490;9.222;2023-05-29T06:52:47;33.60;1.00
6486;DHT22;3276;48.490;9.222;2023-05-29T06:55:13;33.40;1.00
6486;DHT22;3276;48.490;9.222;2023-05-29T06:57:38;34.20;1.00
6486;DHT22;3276;48.490;9.222;2023-05-29T07:00:05;34.80;1.00
6486;DHT22;3276;48.490;9.222;2023-05-29T07:02:31;35.10;1.00
6486;DHT22;3276;48.490;9.222;2023-05-29T07:04:57;35.10;1.00
6486;DHT22;3276;48.490;9.222;2023-05-29T07:07:23;35.70;1.00
6486;DHT22;3276;48.490;9.222;2023-05-29T07:09:48;36.00;1.00
6486;DHT22;3276;48.490;9.222;2023-05-29T07:12:14;35.90;1.00
6486;DHT22;3276;48.490;9.222;2023-05-29T07:14:39;35.40;1.00
6486;DHT22;3276;48.490;9.222;2023-05-29T07:17:05;34.80;1.00
6486;DHT22;3276;48.490;9.222;2023-05-29T07:19:31;35.40;1.00
6486;DHT22;3276;48.490;9.222;2023-05-29T07:21:59;35.40;1.00
6486;DHT22;3276;48.490;9.222;2023-05-29T07:24:24;34.10;1.00
6486;DHT22;3276;48.490;9.222;2023-05-29T07:26:50;34.40;1.00
6486;DHT22;3276;48.490;9.222;2023-05-29T07:29:16;34.60;1.00
6486;DHT22;3276;48.490;9.222;2023-05-29T07:31:43;34.30;1.00
6486;DHT22;3276;48.490;9.222;2023-05-29T07:34:09;35.30;1.00
6486;DHT22;3276;48.490;9.222;2023-05-29T07:36:35;35.30;1.00
6486;DHT22;3276;48.490;9.222;2023-05-29T07:39:02;35.70;1.00
6486;DHT22;3276;48.490;9.222;2023-05-29T07:41:27;36.60;1.00
6486;DHT22;3276;48.490;9.222;2023-05-29T07:43:53;36.30;1.00
6486;DHT22;3276;48.490;9.222;2023-05-29T07:46:21;36.80;1.00
6486;DHT22;3276;48.490;9.222;2023-05-29T07:48:46;36.20;1.00
6486;DHT22;3276;48.490;9.222;2023-05-29T07:51:12;36.00;1.00
6486;DHT22;3276;48.490;9.222;2023-05-29T07:53:38;36.00;1.00
6486;DHT22;3276;48.490;9.222;2023-05-29T07:56:03;36.40;1.00
6486;DHT22;3276;48.490;9.222;2023-05-29T07:58:29;36.60;1.00
6486;DHT22;3276;48.490;9.222;2023-05-29T08:00:54;36.20;1.00
6486;DHT22;3276;48.490;9.222;2023-05-29T08:03:20;36.40;1.00
6486;DHT22;3276;48.490;9.222;2023-05-29T08:05:46;36.50;1.00
6486;DHT22;3276;48.490;9.222;2023-05-29T08:08:12;35.90;1.00
6486;DHT22;3276;48.490;9.222;2023-05-29T08:10:38;35.40;1.00
6486;DHT22;3276;48.490;9.222;2023-05-29T08:13:04;35.70;1.00
6486;DHT22;3276;48.490;9.222;2023-05-29T08:15:29;34.90;1.00
6486;DHT22;3276;48.490;9.222;2023-05-29T08:17:56;34.90;1.00
6486;DHT22;3276;48.490;9.222;2023-05-29T08:20:22;35.20;1.00
6486;DHT22;3276;48.490;9.222;2023-05-29T08:22:48;34.10;1.00
6486;DHT22;3276;48.490;9.222;2023-05-29T08:25:13;34.10;1.00
6486;DHT22;3276;48.490;9.222;2023-05-29T08:27:39;33.90;1.00
6486;DHT22;3276;48.490;9.222;2023-05-29T08:30:05;34.50;1.00
6486;DHT22;3276;48.490;9.222;2023-05-29T08:32:31;34.70;1.00
6486;DHT22;3276;48.490;9.222;2023-05-29T08:34:56;35.30;1.00
6486;DHT22;3276;48.490;9.222;2023-05-29T08:37:22;35.80;1.00
6486;DHT22;3276;48.490;9.222;2023-05-29T08:39:48;35.40;1.00
6486;DHT22;3276;48.490;9.222;2023-05-29T08:42:20;36.70;1.00
6486;DHT22;3276;48.490;9.222;2023-05-29T08:44:47;35.40;1.00
6486;DHT22;3276;48.490;9.222;2023-05-29T08:47:17;35.40;1.00
6486;DHT22;3276;48.490;9.222;2023-05-29T08:49:51;35.00;1.00
6486;DHT22;3276;48.490;9.222;2023-05-29T08:52:24;35.80;1.00
6486;DHT22;3276;48.490;9.222;2023-05-29T08:54:54;35.60;1.00
6486;DHT22;3276;48.490;9.222;2023-05-29T08:57:20;34.60;1.00
6486;DHT22;3276;48.490;9.222;2023-05-29T08:59:47;33.90;1.00
6486;DHT22;3276;48.490;9.222;2023-05-29T09:02:15;32.60;1.00
6486;DHT22;3276;48.490;9.222;2023-05-29T09:04:42;32.40;1.00
6486;DHT22;3276;48.490;9.222;2023-05-29T09:07:11;31.70;1.00
6486;DHT22;3276;48.490;9.222;2023-05-29T09:09:36;31.20;1.00
6486;DHT22;3276;48.490;9.222;2023-05-29T09:12:03;29.90;1.00
6486;DHT22;3276;48.490;9.222;2023-05-29T09:14:39;27.90;1.00
6486;DHT22;3276;48.490;9.222;2023-05-29T09:17:06;26.20;1.00
6486;DHT22;3276;48.490;9.222;2023-05-29T09:19:33;24.90;1.00
6486;DHT22;3276;48.490;9.222;2023-05-29T09:22:07;24.30;1.00
6486;DHT22;3276;48.490;9.222;2023-05-29T09:24:34;24.10;1.00
6486;DHT22;3276;48.490;9.222;2023-05-29T09:27:00;23.80;1.00
6486;DHT22;3276;48.490;9.222;2023-05-29T09:29:27;23.50;1.00
6486;DHT22;3276;48.490;9.222;2023-05-29T09:31:56;23.40;1.00
6486;DHT22;3276;48.490;9.222;2023-05-29T09:34:26;23.30;1.00
6486;DHT22;3276;48.490;9.222;2023-05-29T09:37:01;23.30;1.00
6486;DHT22;3276;48.490;9.222;2023-05-29T09:42:08;23.60;1.00
6486;DHT22;3276;48.490;9.222;2023-05-29T09:44:34;23.60;1.00
6486;DHT22;3276;48.490;9.222;2023-05-29T09:47:00;23.70;1.00
6486;DHT22;3276;48.490;9.222;2023-05-29T09:49:26;23.80;1.00
6486;DHT22;3276;48.490;9.222;2023-05-29T09:51:56;23.80;1.00
6486;DHT22;3276;48.490;9.222;2023-05-29T09:54:21;24.10;1.00
6486;DHT22;3276;48.490;9.222;2023-05-29T09:56:47;24.20;1.00
6486;DHT22;3276;48.490;9.222;2023-05-29T09:59:14;24.40;1.00
6486;DHT22;3276;48.490;9.222;2023-05-29T10:01:43;24.50;1.00
6486;DHT22;3276;48.490;9.222;2023-05-29T10:04:10;24.40;1.00
6486;DHT22;3276;48.490;9.222;2023-05-29T10:06:43;24.30;1.00
6486;DHT22;3276;48.490;9.222;2023-05-29T10:09:12;24.00;1.00
6486;DHT22;3276;48.490;9.222;2023-05-29T10:11:41;24.10;1.00
6486;DHT22;3276;48.490;9.222;2023-05-29T10:14:09;24.20;1.00
6486;DHT22;3276;48.490;9.222;2023-05-29T10:16:41;24.20;1.00
6486;DHT22;3276;48.490;9.222;2023-05-29T10:19:11;24.30;1.00
6486;DHT22;3276;48.490;9.222;2023-05-29T10:21:39;24.20;1.00
6486;DHT22;3276;48.490;9.222;2023-05-29T10:24:07;24.20;1.00
6486;DHT22;3276;48.490;9.222;2023-05-29T10:26:37;24.40;1.00
6486;DHT22;3276;48.490;9.222;2023-05-29T10:29:15;24.40;1.00
6486;DHT22;3276;48.490;9.222;2023-05-29T10:34:35;24.50;1.00
6486;DHT22;3276;48.490;9.222;2023-05-29T10:40:06;24.70;1.00
6486;DHT22;3276;48.490;9.222;2023-05-29T10:42:42;25.00;1.00
6486;DHT22;3276;48.490;9.222;2023-05-29T10:50:38;25.50;1.00
6486;DHT22;3276;48.490;9.222;2023-05-29T10:53:07;25.10;1.00
6486;DHT22;3276;48.490;9.222;2023-05-29T10:55:36;25.00;1.00
6486;DHT22;3276;48.490;9.222;2023-05-29T10:58:10;24.80;1.00
6486;DHT22;3276;48.490;9.222;2023-05-29T11:00:41;24.80;1.00
6486;DHT22;3276;48.490;9.222;2023-05-29T11:03:10;24.80;1.00
6486;DHT22;3276;48.490;9.222;2023-05-29T11:08:29;24.70;1.00
6486;DHT22;3276;48.490;9.222;2023-05-29T11:10:59;24.90;1.00
6486;DHT22;3276;48.490;9.222;2023-05-29T11:13:34;25.10;1.00
6486;DHT22;3276;48.490;9.222;2023-05-29T11:18:51;25.20;1.00
6486;DHT22;3276;48.490;9.222;2023-05-29T11:21:34;25.10;1.00
6486;DHT22;3276;48.490;9.222;2023-05-29T11:24:01;24.90;1.00
6486;DHT22;3276;48.490;9.222;2023-05-29T11:26:29;25.00;1.00
6486;DHT22;3276;48.490;9.222;2023-05-29T11:29:07;25.00;1.00
6486;DHT22;3276;48.490;9.222;2023-05-29T11:31:37;24.90;1.00
6486;DHT22;3276;48.490;9.222;2023-05-29T11:34:03;25.00;1.00
6486;DHT22;3276;48.490;9.222;2023-05-29T11:36:34;25.20;1.00
6486;DHT22;3276;48.490;9.222;2023-05-29T11:39:01;25.10;1.00
6486;DHT22;3276;48.490;9.222;2023-05-29T11:41:27;24.90;1.00
6486;DHT22;3276;48.490;9.222;2023-05-29T11:43:59;25.00;1.00
6486;DHT22;3276;48.490;9.222;2023-05-29T11:46:27;25.20;1.00
6486;DHT22;3276;48.490;9.222;2023-05-29T11:48:56;25.10;1.00
6486;DHT22;3276;48.490;9.222;2023-05-29T11:51:22;25.10;1.00
6486;DHT22;3276;48.490;9.222;2023-05-29T11:53:48;25.20;1.00
6486;DHT22;3276;48.490;9.222;2023-05-29T11:56:14;25.10;1.00
6486;DHT22;3276;48.490;9.222;2023-05-29T11:58:40;25.10;1.00
6486;DHT22;3276;48.490;9.222;2023-05-29T12:01:07;25.10;1.00
6486;DHT22;3276;48.490;9.222;2023-05-29T12:03:43;25.30;1.00
6486;DHT22;3276;48.490;9.222;2023-05-29T12:06:09;25.40;1.00
6486;DHT22;3276;48.490;9.222;2023-05-29T12:08:38;25.60;1.00
6486;DHT22;3276;48.490;9.222;2023-05-29T12:11:05;25.60;1.00
6486;DHT22;3276;48.490;9.222;2023-05-29T12:13:31;25.50;1.00
6486;DHT22;3276;48.490;9.222;2023-05-29T12:15:58;25.60;1.00
6486;DHT22;3276;48.490;9.222;2023-05-29T12:18:25;25.50;1.00
6486;DHT22;3276;48.490;9.222;2023-05-29T12:20:56;25.60;1.00
6486;DHT22;3276;48.490;9.222;2023-05-29T12:23:22;25.40;1.00
6486;DHT22;3276;48.490;9.222;2023-05-29T12:25:48;25.20;1.00
6486;DHT22;3276;48.490;9.222;2023-05-29T12:28:17;25.30;1.00
6486;DHT22;3276;48.490;9.222;2023-05-29T12:30:46;25.50;1.00
6486;DHT22;3276;48.490;9.222;2023-05-29T12:33:29;25.70;1.00
6486;DHT22;3276;48.490;9.222;2023-05-29T12:36:15;25.60;1.00
6486;DHT22;3276;48.490;9.222;2023-05-29T12:38:50;25.60;1.00
6486;DHT22;3276;48.490;9.222;2023-05-29T12:41:30;25.50;1.00
6486;DHT22;3276;48.490;9.222;2023-05-29T12:43:56;25.40;1.00
6486;DHT22;3276;48.490;9.222;2023-05-29T12:46:25;25.40;1.00
6486;DHT22;3276;48.490;9.222;2023-05-29T12:48:54;25.50;1.00
6486;DHT22;3276;48.490;9.222;2023-05-29T12:51:27;25.30;1.00
6486;DHT22;3276;48.490;9.222;2023-05-29T12:53:52;25.50;1.00
6486;DHT22;3276;48.490;9.222;2023-05-29T12:56:21;25.60;1.00
6486;DHT22;3276;48.490;9.222;2023-05-29T12:58:49;25.50;1.00
6486;DHT22;3276;48.490;9.222;2023-05-29T13:01:15;25.60;1.00
6486;DHT22;3276;48.490;9.222;2023-05-29T13:03:41;25.60;1.00
6486;DHT22;3276;48.490;9.222;2023-05-29T13:06:06;25.70;1.00
6486;DHT22;3276;48.490;9.222;2023-05-29T13:08:32;25.70;1.00
6486;DHT22;3276;48.490;9.222;2023-05-29T13:10:58;25.60;1.00
6486;DHT22;3276;48.490;9.222;2023-05-29T13:13:23;25.80;1.00
6486;DHT22;3276;48.490;9.222;2023-05-29T13:15:49;26.00;1.00
6486;DHT22;3276;48.490;9.222;2023-05-29T13:18:14;26.30;1.00
6486;DHT22;3276;48.490;9.222;2023-05-29T13:20:40;26.10;1.00
6486;DHT22;3276;48.490;9.222;2023-05-29T13:23:08;26.00;1.00
6486;DHT22;3276;48.490;9.222;2023-05-29T13:25:34;26.10;1.00
6486;DHT22;3276;48.490;9.222;2023-05-29T13:28:00;25.90;1.00
6486;DHT22;3276;48.490;9.222;2023-05-29T13:30:25;25.80;1.00
6486;DHT22;3276;48.490;9.222;2023-05-29T13:32:51;26.00;1.00
6486;DHT22;3276;48.490;9.222;2023-05-29T13:35:17;25.90;1.00
6486;DHT22;3276;48.490;9.222;2023-05-29T13:37:43;25.80;1.00
6486;DHT22;3276;48.490;9.222;2023-05-29T13:40:09;25.80;1.00
6486;DHT22;3276;48.490;9.222;2023-05-29T13:42:35;25.70;1.00
6486;DHT22;3276;48.490;9.222;2023-05-29T13:45:00;25.50;1.00
6486;DHT22;3276;48.490;9.222;2023-05-29T13:47:26;25.50;1.00
6486;DHT22;3276;48.490;9.222;2023-05-29T13:49:54;25.50;1.00
6486;DHT22;3276;48.490;9.222;2023-05-29T13:52:19;25.70;1.00
6486;DHT22;3276;48.490;9.222;2023-05-29T13:54:45;25.70;1.00
6486;DHT22;3276;48.490;9.222;2023-05-29T13:57:10;25.90;1.00
6486;DHT22;3276;48.490;9.222;2023-05-29T13:59:36;25.90;1.00
6486;DHT22;3276;48.490;9.222;2023-05-29T14:02:02;25.90;1.00
6486;DHT22;3276;48.490;9.222;2023-05-29T14:04:30;26.00;1.00
6486;DHT22;3276;48.490;9.222;2023-05-29T14:06:55;25.70;1.00
6486;DHT22;3276;48.490;9.222;2023-05-29T14:09:22;25.80;1.00
6486;DHT22;3276;48.490;9.222;2023-05-29T14:11:57;25.90;1.00
6486;DHT22;3276;48.490;9.222;2023-05-29T14:14:23;25.80;1.00
6486;DHT22;3276;48.490;9.222;2023-05-29T14:16:49;25.90;1.00
6486;DHT22;3276;48.490;9.222;2023-05-29T14:19:15;25.90;1.00
6486;DHT22;3276;48.490;9.222;2023-05-29T14:21:40;25.80;1.00
6486;DHT22;3276;48.490;9.222;2023-05-29T14:24:06;25.60;1.00
6486;DHT22;3276;48.490;9.222;2023-05-29T14:26:33;25.50;1.00
6486;DHT22;3276;48.490;9.222;2023-05-29T14:28:58;25.50;1.00
6486;DHT22;3276;48.490;9.222;2023-05-29T14:31:24;25.50;1.00
6486;DHT22;3276;48.490;9.222;2023-05-29T14:33:49;25.60;1.00
6486;DHT22;3276;48.490;9.222;2023-05-29T14:36:15;25.50;1.00
6486;DHT22;3276;48.490;9.222;2023-05-29T14:38:41;25.50;1.00
6486;DHT22;3276;48.490;9.222;2023-05-29T14:41:08;25.50;1.00
6486;DHT22;3276;48.490;9.222;2023-05-29T14:43:34;25.40;1.00
6486;DHT22;3276;48.490;9.222;2023-05-29T14:45:59;25.40;1.00
6486;DHT22;3276;48.490;9.222;2023-05-29T14:48:25;25.50;1.00
6486;DHT22;3276;48.490;9.222;2023-05-29T14:50:50;25.60;1.00
6486;DHT22;3276;48.490;9.222;2023-05-29T14:53:16;25.60;1.00
6486;DHT22;3276;48.490;9.222;2023-05-29T14:55:41;25.60;1.00
6486;DHT22;3276;48.490;9.222;2023-05-29T14:58:07;25.60;1.00
6486;DHT22;3276;48.490;9.222;2023-05-29T15:00:32;25.70;1.00
6486;DHT22;3276;48.490;9.222;2023-05-29T15:02:58;25.70;1.00
6486;DHT22;3276;48.490;9.222;2023-05-29T15:05:27;25.70;1.00
6486;DHT22;3276;48.490;9.222;2023-05-29T15:07:53;25.60;1.00
6486;DHT22;3276;48.490;9.222;2023-05-29T15:10:23;25.70;1.00
6486;DHT22;3276;48.490;9.222;2023-05-29T15:12:50;25.60;1.00
6486;DHT22;3276;48.490;9.222;2023-05-29T15:15:24;25.60;1.00
6486;DHT22;3276;48.490;9.222;2023-05-29T15:17:51;25.50;1.00
6486;DHT22;3276;48.490;9.222;2023-05-29T15:20:24;25.30;1.00
6486;DHT22;3276;48.490;9.222;2023-05-29T15:22:50;25.50;1.00
6486;DHT22;3276;48.490;9.222;2023-05-29T15:25:16;25.50;1.00
6486;DHT22;3276;48.490;9.222;2023-05-29T15:27:42;25.50;1.00
6486;DHT22;3276;48.490;9.222;2023-05-29T15:30:15;25.70;1.00
6486;DHT22;3276;48.490;9.222;2023-05-29T15:32:43;25.70;1.00
6486;DHT22;3276;48.490;9.222;2023-05-29T15:35:13;25.60;1.00
6486;DHT22;3276;48.490;9.222;2023-05-29T15:37:41;25.50;1.00
6486;DHT22;3276;48.490;9.222;2023-05-29T15:40:07;25.40;1.00
6486;DHT22;3276;48.490;9.222;2023-05-29T15:42:34;25.40;1.00
6486;DHT22;3276;48.490;9.222;2023-05-29T15:45:02;25.30;1.00
6486;DHT22;3276;48.490;9.222;2023-05-29T15:47:29;25.30;1.00
6486;DHT22;3276;48.490;9.222;2023-05-29T15:49:55;25.30;1.00
6486;DHT22;3276;48.490;9.222;2023-05-29T15:52:21;25.30;1.00
6486;DHT22;3276;48.490;9.222;2023-05-29T15:54:46;25.30;1.00
6486;DHT22;3276;48.490;9.222;2023-05-29T15:57:12;25.20;1.00
6486;DHT22;3276;48.490;9.222;2023-05-29T15:59:37;25.10;1.00
6486;DHT22;3276;48.490;9.222;2023-05-29T16:02:03;24.90;1.00
6486;DHT22;3276;48.490;9.222;2023-05-29T16:04:29;24.90;1.00
6486;DHT22;3276;48.490;9.222;2023-05-29T16:06:54;25.00;1.00
6486;DHT22;3276;48.490;9.222;2023-05-29T16:09:20;25.00;1.00
6486;DHT22;3276;48.490;9.222;2023-05-29T16:11:46;25.00;1.00
6486;DHT22;3276;48.490;9.222;2023-05-29T16:14:12;24.90;1.00
6486;DHT22;3276;48.490;9.222;2023-05-29T16:16:38;24.90;1.00
6486;DHT22;3276;48.490;9.222;2023-05-29T16:19:04;24.90;1.00
6486;DHT22;3276;48.490;9.222;2023-05-29T16:21:31;24.80;1.00
6486;DHT22;3276;48.490;9.222;2023-05-29T16:23:58;24.80;1.00
6486;DHT22;3276;48.490;9.222;2023-05-29T16:26:27;24.80;1.00
6486;DHT22;3276;48.490;9.222;2023-05-29T16:28:58;24.80;1.00
6486;DHT22;3276;48.490;9.222;2023-05-29T16:31:27;24.70;1.00
6486;DHT22;3276;48.490;9.222;2023-05-29T16:33:53;24.70;1.00
6486;DHT22;3276;48.490;9.222;2023-05-29T16:36:19;24.70;1.00
6486;DHT22;3276;48.490;9.222;2023-05-29T16:38:45;24.70;1.00
6486;DHT22;3276;48.490;9.222;2023-05-29T16:41:10;24.70;1.00